sensor_id;sensor_type;location;lat;lon;timestamp;P1;durP1;ratioP1;P2;durP2;ratioP2
45728;SDS011;31439;53.512;10.206;2024-03-02T00:00:50;34.35;;;20.15;;
45728;SDS011;31439;53.512;10.206;2024-03-02T00:03:16;34.03;;;20.20;;
45728;SDS011;31439;53.512;10.206;2024-03-02T00:05:42;40.53;;;21.40;;
45728;SDS011;31439;53.512;10.206;2024-03-02T00:08:08;37.83;;;21.20;;
45728;SDS011;31439;53.512;10.206;2024-03-02T00:13:04;36.58;;;21.88;;
45728;SDS011;31439;53.512;10.206;2024-03-02T00:18:01;42.97;;;21.90;;
45728;SDS011;31439;53.512;10.206;2024-03-02T00:20:27;36.05;;;21.88;;
45728;SDS011;31439;53.512;10.206;2024-03-02T00:23:03;43.45;;;22.33;;
45728;SDS011;31439;53.512;10.206;2024-03-02T00:25:48;40.00;;;22.77;;
45728;SDS011;31439;53.512;10.206;2024-03-02T00:28:32;39.75;;;21.73;;
45728;SDS011;31439;53.512;10.206;2024-03-02T00:33:30;38.13;;;22.33;;
45728;SDS011;31439;53.512;10.206;2024-03-02T00:36:01;42.15;;;23.40;;
45728;SDS011;31439;53.512;10.206;2024-03-02T00:38:30;38.10;;;22.35;;
45728;SDS011;31439;53.512;10.206;2024-03-02T00:40:58;43.08;;;23.77;;
45728;SDS011;31439;53.512;10.206;2024-03-02T00:46:11;40.22;;;21.50;;
45728;SDS011;31439;53.512;10.206;2024-03-02T00:48:37;42.65;;;23.00;;
45728;SDS011;31439;53.512;10.206;2024-03-02T00:51:03;38.63;;;22.27;;
45728;SDS011;31439;53.512;10.206;2024-03-02T00:53:29;41.17;;;23.38;;
45728;SDS011;31439;53.512;10.206;2024-03-02T00:55:56;38.88;;;23.27;;
45728;SDS011;31439;53.512;10.206;2024-03-02T00:58:21;42.00;;;23.25;;
45728;SDS011;31439;53.512;10.206;2024-03-02T01:00:47;40.80;;;23.80;;
45728;SDS011;31439;53.512;10.206;2024-03-02T01:03:13;43.45;;;23.55;;
45728;SDS011;31439;53.512;10.206;2024-03-02T01:05:41;42.33;;;23.35;;
45728;SDS011;31439;53.512;10.206;2024-03-02T01:08:07;37.72;;;22.30;;
45728;SDS011;31439;53.512;10.206;2024-03-02T01:10:34;45.80;;;23.65;;
45728;SDS011;31439;53.512;10.206;2024-03-02T01:12:59;43.95;;;24.15;;
45728;SDS011;31439;53.512;10.206;2024-03-02T01:15:25;40.85;;;22.85;;
45728;SDS011;31439;53.512;10.206;2024-03-02T01:17:51;38.92;;;23.33;;
45728;SDS011;31439;53.512;10.206;2024-03-02T01:20:16;43.00;;;24.02;;
45728;SDS011;31439;53.512;10.206;2024-03-02T01:22:42;44.83;;;24.42;;
45728;SDS011;31439;53.512;10.206;2024-03-02T01:25:08;42.95;;;22.77;;
45728;SDS011;31439;53.512;10.206;2024-03-02T01:27:34;40.33;;;22.98;;
45728;SDS011;31439;53.512;10.206;2024-03-02T01:30:00;45.17;;;25.23;;
45728;SDS011;31439;53.512;10.206;2024-03-02T01:32:25;44.88;;;24.80;;
45728;SDS011;31439;53.512;10.206;2024-03-02T01:34:52;44.72;;;24.88;;
45728;SDS011;31439;53.512;10.206;2024-03-02T01:37:17;42.03;;;23.90;;
45728;SDS011;31439;53.512;10.206;2024-03-02T01:39:43;46.22;;;24.45;;
45728;SDS011;31439;53.512;10.206;2024-03-02T01:42:08;44.35;;;23.38;;
45728;SDS011;31439;53.512;10.206;2024-03-02T01:44:35;42.70;;;24.17;;
45728;SDS011;31439;53.512;10.206;2024-03-02T01:47:01;43.95;;;24.95;;
45728;SDS011;31439;53.512;10.206;2024-03-02T01:49:27;43.83;;;24.27;;
45728;SDS011;31439;53.512;10.206;2024-03-02T01:51:52;43.22;;;23.48;;
45728;SDS011;31439;53.512;10.206;2024-03-02T01:54:18;44.42;;;24.27;;
45728;SDS011;31439;53.512;10.206;2024-03-02T01:56:44;42.58;;;23.80;;
45728;SDS011;31439;53.512;10.206;2024-03-02T01:59:10;43.40;;;24.38;;
45728;SDS011;31439;53.512;10.206;2024-03-02T02:01:36;41.90;;;24.27;;
45728;SDS011;31439;53.512;10.206;2024-03-02T02:04:01;43.15;;;23.30;;
45728;SDS011;31439;53.512;10.206;2024-03-02T02:06:27;44.10;;;24.65;;
45728;SDS011;31439;53.512;10.206;2024-03-02T02:08:53;42.92;;;24.52;;
45728;SDS011;31439;53.512;10.206;2024-03-02T02:11:18;44.28;;;24.25;;
45728;SDS011;31439;53.512;10.206;2024-03-02T02:13:44;40.67;;;24.05;;
45728;SDS011;31439;53.512;10.206;2024-03-02T02:16:10;44.45;;;24.70;;
45728;SDS011;31439;53.512;10.206;2024-03-02T02:18:35;38.75;;;22.73;;
45728;SDS011;31439;53.512;10.206;2024-03-02T02:21:02;40.72;;;23.58;;
45728;SDS011;31439;53.512;10.206;2024-03-02T02:23:34;42.70;;;23.23;;
45728;SDS011;31439;53.512;10.206;2024-03-02T02:26:15;39.17;;;22.63;;
45728;SDS011;31439;53.512;10.206;2024-03-02T02:28:41;40.08;;;22.92;;
45728;SDS011;31439;53.512;10.206;2024-03-02T02:31:12;39.30;;;22.90;;
45728;SDS011;31439;53.512;10.206;2024-03-02T02:33:39;42.33;;;24.17;;
45728;SDS011;31439;53.512;10.206;2024-03-02T02:36:05;38.65;;;22.35;;
45728;SDS011;31439;53.512;10.206;2024-03-02T02:38:32;40.70;;;24.30;;
45728;SDS011;31439;53.512;10.206;2024-03-02T02:41:00;41.15;;;23.00;;
45728;SDS011;31439;53.512;10.206;2024-03-02T02:43:26;40.10;;;22.83;;
45728;SDS011;31439;53.512;10.206;2024-03-02T02:45:52;41.45;;;23.45;;
45728;SDS011;31439;53.512;10.206;2024-03-02T02:48:17;39.13;;;22.98;;
45728;SDS011;31439;53.512;10.206;2024-03-02T02:50:43;40.55;;;23.83;;
45728;SDS011;31439;53.512;10.206;2024-03-02T02:53:08;37.67;;;22.55;;
45728;SDS011;31439;53.512;10.206;2024-03-02T02:55:35;41.45;;;22.67;;
45728;SDS011;31439;53.512;10.206;2024-03-02T02:58:05;39.08;;;23.67;;
45728;SDS011;31439;53.512;10.206;2024-03-02T03:00:32;37.08;;;22.10;;
45728;SDS011;31439;53.512;10.206;2024-03-02T03:02:58;39.55;;;22.40;;
45728;SDS011;31439;53.512;10.206;2024-03-02T03:05:24;40.28;;;22.63;;
45728;SDS011;31439;53.512;10.206;2024-03-02T03:07:50;41.20;;;23.23;;
45728;SDS011;31439;53.512;10.206;2024-03-02T03:10:16;39.92;;;23.02;;
45728;SDS011;31439;53.512;10.206;2024-03-02T03:12:42;42.85;;;22.90;;
45728;SDS011;31439;53.512;10.206;2024-03-02T03:15:08;38.72;;;22.55;;
45728;SDS011;31439;53.512;10.206;2024-03-02T03:17:35;39.78;;;22.23;;
45728;SDS011;31439;53.512;10.206;2024-03-02T03:20:02;37.42;;;22.38;;
45728;SDS011;31439;53.512;10.206;2024-03-02T03:22:29;39.10;;;22.73;;
45728;SDS011;31439;53.512;10.206;2024-03-02T03:24:56;40.75;;;22.55;;
45728;SDS011;31439;53.512;10.206;2024-03-02T03:27:22;40.22;;;23.10;;
45728;SDS011;31439;53.512;10.206;2024-03-02T03:29:48;41.53;;;23.42;;
45728;SDS011;31439;53.512;10.206;2024-03-02T03:32:13;37.08;;;22.73;;
45728;SDS011;31439;53.512;10.206;2024-03-02T03:34:39;39.47;;;22.73;;
45728;SDS011;31439;53.512;10.206;2024-03-02T03:37:05;38.67;;;21.67;;
45728;SDS011;31439;53.512;10.206;2024-03-02T03:39:31;35.45;;;21.05;;
45728;SDS011;31439;53.512;10.206;2024-03-02T03:41:58;36.75;;;20.77;;
45728;SDS011;31439;53.512;10.206;2024-03-02T03:44:24;38.65;;;22.10;;
45728;SDS011;31439;53.512;10.206;2024-03-02T03:46:50;38.40;;;20.58;;
45728;SDS011;31439;53.512;10.206;2024-03-02T03:49:15;37.33;;;21.65;;
45728;SDS011;31439;53.512;10.206;2024-03-02T03:51:42;35.97;;;21.55;;
45728;SDS011;31439;53.512;10.206;2024-03-02T03:54:08;36.55;;;21.00;;
45728;SDS011;31439;53.512;10.206;2024-03-02T03:56:33;38.92;;;20.95;;
45728;SDS011;31439;53.512;10.206;2024-03-02T03:58:59;34.33;;;20.83;;
45728;SDS011;31439;53.512;10.206;2024-03-02T04:01:24;32.67;;;20.48;;
45728;SDS011;31439;53.512;10.206;2024-03-02T04:03:50;38.35;;;21.50;;
45728;SDS011;31439;53.512;10.206;2024-03-02T04:06:16;36.28;;;20.80;;
45728;SDS011;31439;53.512;10.206;2024-03-02T04:08:42;35.03;;;21.05;;
45728;SDS011;31439;53.512;10.206;2024-03-02T04:11:08;34.55;;;20.48;;
45728;SDS011;31439;53.512;10.206;2024-03-02T04:13:33;37.05;;;21.00;;
45728;SDS011;31439;53.512;10.206;2024-03-02T04:15:59;32.03;;;19.63;;
45728;SDS011;31439;53.512;10.206;2024-03-02T04:18:25;35.45;;;21.02;;
45728;SDS011;31439;53.512;10.206;2024-03-02T04:20:50;35.15;;;20.02;;
45728;SDS011;31439;53.512;10.206;2024-03-02T04:23:16;35.75;;;20.10;;
45728;SDS011;31439;53.512;10.206;2024-03-02T04:25:41;32.75;;;19.38;;
45728;SDS011;31439;53.512;10.206;2024-03-02T04:28:07;32.97;;;19.88;;
45728;SDS011;31439;53.512;10.206;2024-03-02T04:30:33;32.28;;;20.13;;
45728;SDS011;31439;53.512;10.206;2024-03-02T04:32:58;30.23;;;18.58;;
45728;SDS011;31439;53.512;10.206;2024-03-02T04:35:24;31.40;;;19.83;;
45728;SDS011;31439;53.512;10.206;2024-03-02T04:37:50;31.23;;;19.15;;
45728;SDS011;31439;53.512;10.206;2024-03-02T04:40:16;30.55;;;18.83;;
45728;SDS011;31439;53.512;10.206;2024-03-02T04:42:42;33.45;;;19.80;;
45728;SDS011;31439;53.512;10.206;2024-03-02T04:45:08;31.48;;;18.17;;
45728;SDS011;31439;53.512;10.206;2024-03-02T04:47:33;35.60;;;18.65;;
45728;SDS011;31439;53.512;10.206;2024-03-02T04:49:59;33.85;;;20.50;;
45728;SDS011;31439;53.512;10.206;2024-03-02T04:52:25;28.45;;;18.48;;
45728;SDS011;31439;53.512;10.206;2024-03-02T04:54:51;27.23;;;17.60;;
45728;SDS011;31439;53.512;10.206;2024-03-02T04:57:42;29.80;;;17.90;;
45728;SDS011;31439;53.512;10.206;2024-03-02T05:00:08;33.33;;;19.00;;
45728;SDS011;31439;53.512;10.206;2024-03-02T05:02:35;30.40;;;18.02;;
45728;SDS011;31439;53.512;10.206;2024-03-02T05:05:01;31.15;;;18.25;;
45728;SDS011;31439;53.512;10.206;2024-03-02T05:07:27;30.90;;;17.88;;
45728;SDS011;31439;53.512;10.206;2024-03-02T05:09:53;33.58;;;19.05;;
45728;SDS011;31439;53.512;10.206;2024-03-02T05:12:19;30.55;;;18.08;;
45728;SDS011;31439;53.512;10.206;2024-03-02T05:15:03;32.38;;;18.95;;
45728;SDS011;31439;53.512;10.206;2024-03-02T05:17:29;31.98;;;19.05;;
45728;SDS011;31439;53.512;10.206;2024-03-02T05:19:55;32.28;;;18.83;;
45728;SDS011;31439;53.512;10.206;2024-03-02T05:22:20;30.95;;;18.98;;
45728;SDS011;31439;53.512;10.206;2024-03-02T05:24:46;29.33;;;18.30;;
45728;SDS011;31439;53.512;10.206;2024-03-02T05:27:11;30.60;;;18.30;;
45728;SDS011;31439;53.512;10.206;2024-03-02T05:29:37;29.23;;;18.25;;
45728;SDS011;31439;53.512;10.206;2024-03-02T05:32:03;31.75;;;19.00;;
45728;SDS011;31439;53.512;10.206;2024-03-02T05:34:29;27.70;;;18.02;;
45728;SDS011;31439;53.512;10.206;2024-03-02T05:36:55;30.67;;;18.02;;
45728;SDS011;31439;53.512;10.206;2024-03-02T05:39:22;31.75;;;18.02;;
45728;SDS011;31439;53.512;10.206;2024-03-02T05:41:48;33.15;;;19.00;;
45728;SDS011;31439;53.512;10.206;2024-03-02T05:44:14;30.90;;;18.55;;
45728;SDS011;31439;53.512;10.206;2024-03-02T05:46:40;30.92;;;19.33;;
45728;SDS011;31439;53.512;10.206;2024-03-02T05:49:07;29.88;;;18.10;;
45728;SDS011;31439;53.512;10.206;2024-03-02T05:51:33;33.22;;;19.40;;
45728;SDS011;31439;53.512;10.206;2024-03-02T05:53:59;32.60;;;19.08;;
45728;SDS011;31439;53.512;10.206;2024-03-02T05:56:24;32.15;;;19.13;;
45728;SDS011;31439;53.512;10.206;2024-03-02T05:58:50;31.45;;;18.42;;
45728;SDS011;31439;53.512;10.206;2024-03-02T06:01:38;31.98;;;18.30;;
45728;SDS011;31439;53.512;10.206;2024-03-02T06:04:07;31.27;;;17.98;;
45728;SDS011;31439;53.512;10.206;2024-03-02T06:06:34;31.15;;;18.75;;
45728;SDS011;31439;53.512;10.206;2024-03-02T06:09:03;31.20;;;18.20;;
45728;SDS011;31439;53.512;10.206;2024-03-02T06:11:35;29.05;;;17.83;;
45728;SDS011;31439;53.512;10.206;2024-03-02T06:14:02;29.50;;;19.52;;
45728;SDS011;31439;53.512;10.206;2024-03-02T06:16:28;31.20;;;18.92;;
45728;SDS011;31439;53.512;10.206;2024-03-02T06:18:55;29.88;;;19.13;;
45728;SDS011;31439;53.512;10.206;2024-03-02T06:21:22;28.98;;;17.67;;
45728;SDS011;31439;53.512;10.206;2024-03-02T06:23:51;28.98;;;17.70;;
45728;SDS011;31439;53.512;10.206;2024-03-02T06:26:17;29.40;;;17.27;;
45728;SDS011;31439;53.512;10.206;2024-03-02T06:28:43;31.25;;;17.85;;
45728;SDS011;31439;53.512;10.206;2024-03-02T06:31:09;30.65;;;18.33;;
45728;SDS011;31439;53.512;10.206;2024-03-02T06:33:35;29.20;;;18.42;;
45728;SDS011;31439;53.512;10.206;2024-03-02T06:36:01;31.38;;;18.42;;
45728;SDS011;31439;53.512;10.206;2024-03-02T06:38:27;28.92;;;17.92;;
45728;SDS011;31439;53.512;10.206;2024-03-02T06:40:53;28.67;;;17.60;;
45728;SDS011;31439;53.512;10.206;2024-03-02T06:43:20;29.00;;;18.65;;
45728;SDS011;31439;53.512;10.206;2024-03-02T06:45:49;29.58;;;17.65;;
45728;SDS011;31439;53.512;10.206;2024-03-02T06:48:15;28.95;;;17.90;;
45728;SDS011;31439;53.512;10.206;2024-03-02T06:50:45;30.52;;;18.38;;
45728;SDS011;31439;53.512;10.206;2024-03-02T06:53:14;32.00;;;18.05;;
45728;SDS011;31439;53.512;10.206;2024-03-02T06:55:42;30.13;;;18.33;;
45728;SDS011;31439;53.512;10.206;2024-03-02T06:58:09;32.45;;;18.92;;
45728;SDS011;31439;53.512;10.206;2024-03-02T07:00:36;32.65;;;19.58;;
45728;SDS011;31439;53.512;10.206;2024-03-02T07:03:01;28.05;;;18.38;;
45728;SDS011;31439;53.512;10.206;2024-03-02T07:05:27;31.33;;;17.80;;
45728;SDS011;31439;53.512;10.206;2024-03-02T07:07:53;31.60;;;18.10;;
45728;SDS011;31439;53.512;10.206;2024-03-02T07:10:19;36.50;;;19.27;;
45728;SDS011;31439;53.512;10.206;2024-03-02T07:12:44;31.65;;;18.63;;
45728;SDS011;31439;53.512;10.206;2024-03-02T07:15:10;31.20;;;19.27;;
45728;SDS011;31439;53.512;10.206;2024-03-02T07:17:48;33.25;;;19.00;;
45728;SDS011;31439;53.512;10.206;2024-03-02T07:20:14;32.55;;;18.45;;
45728;SDS011;31439;53.512;10.206;2024-03-02T07:22:40;32.22;;;18.05;;
45728;SDS011;31439;53.512;10.206;2024-03-02T07:25:06;29.58;;;18.92;;
45728;SDS011;31439;53.512;10.206;2024-03-02T07:27:32;30.58;;;18.60;;
45728;SDS011;31439;53.512;10.206;2024-03-02T07:29:58;30.67;;;18.23;;
45728;SDS011;31439;53.512;10.206;2024-03-02T07:32:24;32.33;;;18.35;;
45728;SDS011;31439;53.512;10.206;2024-03-02T07:34:49;30.98;;;19.23;;
45728;SDS011;31439;53.512;10.206;2024-03-02T07:37:16;29.77;;;17.92;;
45728;SDS011;31439;53.512;10.206;2024-03-02T07:39:43;30.83;;;19.23;;
45728;SDS011;31439;53.512;10.206;2024-03-02T07:42:09;31.52;;;19.15;;
45728;SDS011;31439;53.512;10.206;2024-03-02T07:44:35;30.45;;;18.30;;
45728;SDS011;31439;53.512;10.206;2024-03-02T07:47:00;29.73;;;18.98;;
45728;SDS011;31439;53.512;10.206;2024-03-02T07:49:26;32.13;;;18.38;;
45728;SDS011;31439;53.512;10.206;2024-03-02T07:51:54;30.77;;;18.52;;
45728;SDS011;31439;53.512;10.206;2024-03-02T07:54:20;28.33;;;17.70;;
45728;SDS011;31439;53.512;10.206;2024-03-02T07:56:46;32.15;;;18.48;;
45728;SDS011;31439;53.512;10.206;2024-03-02T07:59:12;31.60;;;18.67;;
45728;SDS011;31439;53.512;10.206;2024-03-02T08:01:38;30.27;;;18.42;;
45728;SDS011;31439;53.512;10.206;2024-03-02T08:04:03;30.65;;;18.90;;
45728;SDS011;31439;53.512;10.206;2024-03-02T08:06:30;32.00;;;18.65;;
45728;SDS011;31439;53.512;10.206;2024-03-02T08:08:56;32.13;;;18.77;;
45728;SDS011;31439;53.512;10.206;2024-03-02T08:11:23;30.45;;;18.13;;
45728;SDS011;31439;53.512;10.206;2024-03-02T08:13:49;28.33;;;17.80;;
45728;SDS011;31439;53.512;10.206;2024-03-02T08:16:15;31.25;;;18.27;;
45728;SDS011;31439;53.512;10.206;2024-03-02T08:18:44;28.67;;;18.33;;
45728;SDS011;31439;53.512;10.206;2024-03-02T08:21:11;31.17;;;18.38;;
45728;SDS011;31439;53.512;10.206;2024-03-02T08:23:37;34.78;;;19.00;;
45728;SDS011;31439;53.512;10.206;2024-03-02T08:26:06;29.92;;;19.10;;
45728;SDS011;31439;53.512;10.206;2024-03-02T08:28:32;33.83;;;19.35;;
45728;SDS011;31439;53.512;10.206;2024-03-02T08:30:58;30.30;;;18.48;;
45728;SDS011;31439;53.512;10.206;2024-03-02T08:37:05;30.77;;;17.95;;
45728;SDS011;31439;53.512;10.206;2024-03-02T08:43:30;29.52;;;16.30;;
45728;SDS011;31439;53.512;10.206;2024-03-02T08:45:57;26.50;;;16.38;;
45728;SDS011;31439;53.512;10.206;2024-03-02T08:48:27;29.23;;;16.98;;
45728;SDS011;31439;53.512;10.206;2024-03-02T08:50:59;29.70;;;17.17;;
45728;SDS011;31439;53.512;10.206;2024-03-02T08:53:24;30.60;;;15.80;;
45728;SDS011;31439;53.512;10.206;2024-03-02T08:55:50;31.92;;;18.95;;
45728;SDS011;31439;53.512;10.206;2024-03-02T08:58:16;29.10;;;17.77;;
45728;SDS011;31439;53.512;10.206;2024-03-02T09:04:07;27.42;;;17.88;;
45728;SDS011;31439;53.512;10.206;2024-03-02T09:06:35;29.83;;;19.52;;
45728;SDS011;31439;53.512;10.206;2024-03-02T09:09:12;34.20;;;19.50;;
45728;SDS011;31439;53.512;10.206;2024-03-02T09:11:41;32.30;;;19.25;;
45728;SDS011;31439;53.512;10.206;2024-03-02T09:14:19;30.52;;;19.58;;
45728;SDS011;31439;53.512;10.206;2024-03-02T09:17:21;30.10;;;19.05;;
45728;SDS011;31439;53.512;10.206;2024-03-02T09:19:46;30.95;;;19.23;;
45728;SDS011;31439;53.512;10.206;2024-03-02T09:22:15;30.83;;;18.42;;
45728;SDS011;31439;53.512;10.206;2024-03-02T09:24:41;28.83;;;18.25;;
45728;SDS011;31439;53.512;10.206;2024-03-02T09:27:06;30.63;;;18.48;;
45728;SDS011;31439;53.512;10.206;2024-03-02T09:29:36;32.90;;;19.10;;
45728;SDS011;31439;53.512;10.206;2024-03-02T09:32:01;32.80;;;19.65;;
45728;SDS011;31439;53.512;10.206;2024-03-02T09:34:27;28.73;;;17.50;;
45728;SDS011;31439;53.512;10.206;2024-03-02T09:36:53;29.48;;;18.00;;
45728;SDS011;31439;53.512;10.206;2024-03-02T09:39:19;30.42;;;18.40;;
45728;SDS011;31439;53.512;10.206;2024-03-02T09:41:45;30.33;;;18.88;;
45728;SDS011;31439;53.512;10.206;2024-03-02T09:44:14;32.45;;;18.27;;
45728;SDS011;31439;53.512;10.206;2024-03-02T09:46:40;28.02;;;17.38;;
45728;SDS011;31439;53.512;10.206;2024-03-02T09:49:09;28.25;;;17.23;;
45728;SDS011;31439;53.512;10.206;2024-03-02T09:51:36;25.67;;;16.90;;
45728;SDS011;31439;53.512;10.206;2024-03-02T09:54:06;25.08;;;16.33;;
45728;SDS011;31439;53.512;10.206;2024-03-02T09:56:33;26.23;;;16.58;;
45728;SDS011;31439;53.512;10.206;2024-03-02T09:58:59;25.38;;;16.48;;
45728;SDS011;31439;53.512;10.206;2024-03-02T10:01:24;24.90;;;15.55;;
45728;SDS011;31439;53.512;10.206;2024-03-02T10:03:52;27.77;;;15.25;;
45728;SDS011;31439;53.512;10.206;2024-03-02T10:08:45;21.23;;;14.48;;
45728;SDS011;31439;53.512;10.206;2024-03-02T10:11:14;23.17;;;14.13;;
45728;SDS011;31439;53.512;10.206;2024-03-02T10:13:50;20.65;;;13.68;;
45728;SDS011;31439;53.512;10.206;2024-03-02T10:16:16;21.60;;;14.15;;
45728;SDS011;31439;53.512;10.206;2024-03-02T10:18:42;23.77;;;14.65;;
45728;SDS011;31439;53.512;10.206;2024-03-02T10:21:14;22.52;;;13.20;;
45728;SDS011;31439;53.512;10.206;2024-03-02T10:23:40;19.65;;;13.10;;
45728;SDS011;31439;53.512;10.206;2024-03-02T10:26:27;21.08;;;13.23;;
45728;SDS011;31439;53.512;10.206;2024-03-02T10:28:53;24.63;;;12.73;;
45728;SDS011;31439;53.512;10.206;2024-03-02T10:31:24;20.67;;;12.30;;
45728;SDS011;31439;53.512;10.206;2024-03-02T10:33:56;19.40;;;12.60;;
45728;SDS011;31439;53.512;10.206;2024-03-02T10:36:23;19.00;;;12.65;;
45728;SDS011;31439;53.512;10.206;2024-03-02T10:38:50;22.20;;;13.20;;
45728;SDS011;31439;53.512;10.206;2024-03-02T10:41:20;20.15;;;12.68;;
45728;SDS011;31439;53.512;10.206;2024-03-02T10:43:49;21.17;;;13.25;;
45728;SDS011;31439;53.512;10.206;2024-03-02T10:46:28;17.80;;;11.98;;
45728;SDS011;31439;53.512;10.206;2024-03-02T10:49:06;17.50;;;12.38;;
45728;SDS011;31439;53.512;10.206;2024-03-02T10:51:32;20.10;;;12.30;;
45728;SDS011;31439;53.512;10.206;2024-03-02T10:54:03;17.83;;;11.82;;
45728;SDS011;31439;53.512;10.206;2024-03-02T10:56:30;19.65;;;12.40;;
45728;SDS011;31439;53.512;10.206;2024-03-02T10:59:03;21.92;;;12.73;;
45728;SDS011;31439;53.512;10.206;2024-03-02T11:01:47;17.88;;;11.48;;
45728;SDS011;31439;53.512;10.206;2024-03-02T11:04:13;15.15;;;10.70;;
45728;SDS011;31439;53.512;10.206;2024-03-02T11:06:43;19.48;;;10.95;;
45728;SDS011;31439;53.512;10.206;2024-03-02T11:09:20;16.30;;;11.00;;
45728;SDS011;31439;53.512;10.206;2024-03-02T11:12:36;17.53;;;11.37;;
45728;SDS011;31439;53.512;10.206;2024-03-02T11:14:42;18.23;;;10.82;;
45728;SDS011;31439;53.512;10.206;2024-03-02T11:17:11;17.70;;;10.77;;
45728;SDS011;31439;53.512;10.206;2024-03-02T11:19:40;17.73;;;11.38;;
45728;SDS011;31439;53.512;10.206;2024-03-02T11:22:07;18.95;;;11.57;;
45728;SDS011;31439;53.512;10.206;2024-03-02T11:24:34;19.80;;;11.35;;
45728;SDS011;31439;53.512;10.206;2024-03-02T11:27:01;16.98;;;11.32;;
45728;SDS011;31439;53.512;10.206;2024-03-02T11:32:04;17.40;;;10.35;;
45728;SDS011;31439;53.512;10.206;2024-03-02T11:34:31;18.02;;;11.00;;
45728;SDS011;31439;53.512;10.206;2024-03-02T11:36:58;15.57;;;9.95;;
45728;SDS011;31439;53.512;10.206;2024-03-02T11:39:26;17.40;;;10.73;;
45728;SDS011;31439;53.512;10.206;2024-03-02T11:41:55;16.20;;;10.23;;
45728;SDS011;31439;53.512;10.206;2024-03-02T11:44:22;16.45;;;11.18;;
45728;SDS011;31439;53.512;10.206;2024-03-02T11:46:59;16.25;;;10.90;;
45728;SDS011;31439;53.512;10.206;2024-03-02T11:49:41;16.38;;;10.95;;
45728;SDS011;31439;53.512;10.206;2024-03-02T11:52:10;18.13;;;11.47;;
45728;SDS011;31439;53.512;10.206;2024-03-02T11:54:37;17.50;;;10.82;;
45728;SDS011;31439;53.512;10.206;2024-03-02T11:57:11;20.67;;;11.20;;
45728;SDS011;31439;53.512;10.206;2024-03-02T11:59:39;17.23;;;11.05;;
45728;SDS011;31439;53.512;10.206;2024-03-02T12:02:05;18.48;;;11.25;;
45728;SDS011;31439;53.512;10.206;2024-03-02T12:04:31;17.30;;;10.90;;
45728;SDS011;31439;53.512;10.206;2024-03-02T12:07:00;18.50;;;11.02;;
45728;SDS011;31439;53.512;10.206;2024-03-02T12:09:26;16.08;;;10.48;;
45728;SDS011;31439;53.512;10.206;2024-03-02T12:12:03;16.95;;;11.00;;
45728;SDS011;31439;53.512;10.206;2024-03-02T12:14:34;16.77;;;10.65;;
45728;SDS011;31439;53.512;10.206;2024-03-02T12:17:01;17.25;;;10.50;;
45728;SDS011;31439;53.512;10.206;2024-03-02T12:19:28;16.10;;;10.15;;
45728;SDS011;31439;53.512;10.206;2024-03-02T12:21:55;16.17;;;10.07;;
45728;SDS011;31439;53.512;10.206;2024-03-02T12:24:21;13.98;;;9.40;;
45728;SDS011;31439;53.512;10.206;2024-03-02T12:26:48;15.73;;;9.70;;
45728;SDS011;31439;53.512;10.206;2024-03-02T12:29:14;14.85;;;10.10;;
45728;SDS011;31439;53.512;10.206;2024-03-02T12:31:41;13.65;;;9.55;;
45728;SDS011;31439;53.512;10.206;2024-03-02T12:34:10;14.10;;;9.55;;
45728;SDS011;31439;53.512;10.206;2024-03-02T12:36:38;15.25;;;9.50;;
45728;SDS011;31439;53.512;10.206;2024-03-02T12:39:04;15.85;;;9.95;;
45728;SDS011;31439;53.512;10.206;2024-03-02T12:41:30;16.77;;;9.50;;
45728;SDS011;31439;53.512;10.206;2024-03-02T12:43:56;14.77;;;9.65;;
45728;SDS011;31439;53.512;10.206;2024-03-02T12:46:21;17.60;;;10.32;;
45728;SDS011;31439;53.512;10.206;2024-03-02T12:48:47;18.67;;;11.27;;
45728;SDS011;31439;53.512;10.206;2024-03-02T12:51:13;16.13;;;9.90;;
45728;SDS011;31439;53.512;10.206;2024-03-02T12:53:39;15.02;;;10.02;;
45728;SDS011;31439;53.512;10.206;2024-03-02T12:56:05;15.38;;;9.80;;
45728;SDS011;31439;53.512;10.206;2024-03-02T12:58:38;15.25;;;9.48;;
45728;SDS011;31439;53.512;10.206;2024-03-02T13:01:07;15.35;;;9.38;;
45728;SDS011;31439;53.512;10.206;2024-03-02T13:03:40;13.52;;;9.02;;
45728;SDS011;31439;53.512;10.206;2024-03-02T13:06:06;15.23;;;9.18;;
45728;SDS011;31439;53.512;10.206;2024-03-02T13:08:33;15.50;;;9.45;;
45728;SDS011;31439;53.512;10.206;2024-03-02T13:10:58;13.82;;;8.93;;
45728;SDS011;31439;53.512;10.206;2024-03-02T13:13:24;14.80;;;9.68;;
45728;SDS011;31439;53.512;10.206;2024-03-02T13:15:50;16.30;;;10.65;;
45728;SDS011;31439;53.512;10.206;2024-03-02T13:18:20;14.30;;;9.63;;
45728;SDS011;31439;53.512;10.206;2024-03-02T13:20:47;13.73;;;9.43;;
45728;SDS011;31439;53.512;10.206;2024-03-02T13:23:13;15.18;;;10.20;;
45728;SDS011;31439;53.512;10.206;2024-03-02T13:25:39;17.70;;;10.63;;
45728;SDS011;31439;53.512;10.206;2024-03-02T13:28:05;15.38;;;9.48;;
45728;SDS011;31439;53.512;10.206;2024-03-02T13:30:31;14.70;;;9.57;;
45728;SDS011;31439;53.512;10.206;2024-03-02T13:32:57;14.13;;;9.82;;
45728;SDS011;31439;53.512;10.206;2024-03-02T13:35:23;16.23;;;10.05;;
45728;SDS011;31439;53.512;10.206;2024-03-02T13:37:49;14.85;;;10.15;;
45728;SDS011;31439;53.512;10.206;2024-03-02T13:40:15;16.00;;;10.25;;
45728;SDS011;31439;53.512;10.206;2024-03-02T13:42:45;16.40;;;10.80;;
45728;SDS011;31439;53.512;10.206;2024-03-02T13:45:12;17.27;;;10.18;;
45728;SDS011;31439;53.512;10.206;2024-03-02T13:47:41;15.63;;;11.00;;
45728;SDS011;31439;53.512;10.206;2024-03-02T13:50:07;16.20;;;10.23;;
45728;SDS011;31439;53.512;10.206;2024-03-02T13:52:32;18.10;;;10.45;;
45728;SDS011;31439;53.512;10.206;2024-03-02T13:54:58;15.57;;;10.18;;
45728;SDS011;31439;53.512;10.206;2024-03-02T13:57:24;14.60;;;8.80;;
45728;SDS011;31439;53.512;10.206;2024-03-02T13:59:50;18.20;;;10.15;;
45728;SDS011;31439;53.512;10.206;2024-03-02T14:02:17;19.00;;;10.45;;
45728;SDS011;31439;53.512;10.206;2024-03-02T14:04:43;15.43;;;9.40;;
45728;SDS011;31439;53.512;10.206;2024-03-02T14:07:09;17.50;;;10.55;;
45728;SDS011;31439;53.512;10.206;2024-03-02T14:09:37;14.77;;;9.77;;
45728;SDS011;31439;53.512;10.206;2024-03-02T14:12:03;15.15;;;9.27;;
45728;SDS011;31439;53.512;10.206;2024-03-02T14:14:30;15.27;;;9.40;;
45728;SDS011;31439;53.512;10.206;2024-03-02T14:16:55;13.80;;;8.75;;
45728;SDS011;31439;53.512;10.206;2024-03-02T14:19:25;13.70;;;9.30;;
45728;SDS011;31439;53.512;10.206;2024-03-02T14:21:51;15.60;;;9.65;;
45728;SDS011;31439;53.512;10.206;2024-03-02T14:24:16;11.88;;;8.50;;
45728;SDS011;31439;53.512;10.206;2024-03-02T14:26:42;14.13;;;9.32;;
45728;SDS011;31439;53.512;10.206;2024-03-02T14:29:08;13.57;;;8.57;;
45728;SDS011;31439;53.512;10.206;2024-03-02T14:31:33;17.73;;;10.10;;
45728;SDS011;31439;53.512;10.206;2024-03-02T14:33:59;15.35;;;9.73;;
45728;SDS011;31439;53.512;10.206;2024-03-02T14:36:25;15.50;;;9.60;;
45728;SDS011;31439;53.512;10.206;2024-03-02T14:38:55;15.43;;;9.60;;